sensor_id;sensor_type;location;lat;lon;timestamp;P1;durP1;ratioP1;P2;durP2;ratioP2
55989;SDS011;41875;55.806;38.082;2022-09-19T00:00:09;20.02;;;10.95;;
55989;SDS011;41875;55.806;38.082;2022-09-19T00:02:38;19.40;;;11.88;;
55989;SDS011;41875;55.806;38.082;2022-09-19T00:05:06;19.40;;;10.02;;
55989;SDS011;41875;55.806;38.082;2022-09-19T00:07:37;17.48;;;10.02;;
55989;SDS011;41875;55.806;38.082;2022-09-19T00:10:06;11.60;;;7.03;;
55989;SDS011;41875;55.806;38.082;2022-09-19T00:12:36;8.57;;;5.25;;
55989;SDS011;41875;55.806;38.082;2022-09-19T00:15:04;9.13;;;5.13;;
55989;SDS011;41875;55.806;38.082;2022-09-19T00:17:34;9.18;;;3.95;;
55989;SDS011;41875;55.806;38.082;2022-09-19T00:20:03;8.13;;;3.30;;
55989;SDS011;41875;55.806;38.082;2022-09-19T00:22:32;7.82;;;3.47;;
55989;SDS011;41875;55.806;38.082;2022-09-19T00:25:02;7.38;;;3.65;;
55989;SDS011;41875;55.806;38.082;2022-09-19T00:27:36;6.40;;;3.67;;
55989;SDS011;41875;55.806;38.082;2022-09-19T00:30:05;8.75;;;3.60;;
55989;SDS011;41875;55.806;38.082;2022-09-19T00:32:35;6.53;;;3.05;;
55989;SDS011;41875;55.806;38.082;2022-09-19T00:35:05;8.13;;;3.60;;
55989;SDS011;41875;55.806;38.082;2022-09-19T00:37:34;6.13;;;2.80;;
55989;SDS011;41875;55.806;38.082;2022-09-19T00:40:05;6.15;;;3.10;;
55989;SDS011;41875;55.806;38.082;2022-09-19T00:42:34;5.85;;;2.85;;
55989;SDS011;41875;55.806;38.082;2022-09-19T00:45:09;6.93;;;3.20;;
55989;SDS011;41875;55.806;38.082;2022-09-19T00:47:42;8.05;;;3.50;;
55989;SDS011;41875;55.806;38.082;2022-09-19T00:50:15;6.93;;;3.40;;
55989;SDS011;41875;55.806;38.082;2022-09-19T00:52:49;5.70;;;3.05;;
55989;SDS011;41875;55.806;38.082;2022-09-19T00:55:22;8.70;;;3.53;;
55989;SDS011;41875;55.806;38.082;2022-09-19T00:57:53;6.70;;;3.83;;
55989;SDS011;41875;55.806;38.082;2022-09-19T01:00:27;7.50;;;3.85;;
55989;SDS011;41875;55.806;38.082;2022-09-19T01:02:57;8.18;;;4.40;;
55989;SDS011;41875;55.806;38.082;2022-09-19T01:05:37;7.75;;;4.05;;
55989;SDS011;41875;55.806;38.082;2022-09-19T01:08:20;9.85;;;4.53;;
55989;SDS011;41875;55.806;38.082;2022-09-19T01:11:07;8.77;;;4.90;;
55989;SDS011;41875;55.806;38.082;2022-09-19T01:13:48;9.20;;;4.88;;
55989;SDS011;41875;55.806;38.082;2022-09-19T01:16:25;11.02;;;5.63;;
55989;SDS011;41875;55.806;38.082;2022-09-19T01:19:05;10.77;;;6.22;;
55989;SDS011;41875;55.806;38.082;2022-09-19T01:21:51;9.93;;;6.32;;
55989;SDS011;41875;55.806;38.082;2022-09-19T01:24:38;10.45;;;5.28;;
55989;SDS011;41875;55.806;38.082;2022-09-19T01:27:33;8.73;;;4.90;;
55989;SDS011;41875;55.806;38.082;2022-09-19T01:30:13;10.57;;;4.57;;
55989;SDS011;41875;55.806;38.082;2022-09-19T01:32:45;7.38;;;4.07;;
55989;SDS011;41875;55.806;38.082;2022-09-19T01:35:21;5.72;;;3.20;;
55989;SDS011;41875;55.806;38.082;2022-09-19T01:37:56;7.30;;;3.90;;
55989;SDS011;41875;55.806;38.082;2022-09-19T01:40:31;5.90;;;3.30;;
55989;SDS011;41875;55.806;38.082;2022-09-19T01:43:03;5.72;;;3.13;;
55989;SDS011;41875;55.806;38.082;2022-09-19T01:45:34;5.38;;;3.40;;
55989;SDS011;41875;55.806;38.082;2022-09-19T01:48:09;8.55;;;3.63;;
55989;SDS011;41875;55.806;38.082;2022-09-19T01:50:56;7.20;;;3.92;;
55989;SDS011;41875;55.806;38.082;2022-09-19T01:53:57;7.03;;;4.00;;
55989;SDS011;41875;55.806;38.082;2022-09-19T01:56:55;6.78;;;3.45;;
55989;SDS011;41875;55.806;38.082;2022-09-19T01:59:31;8.30;;;4.10;;
55989;SDS011;41875;55.806;38.082;2022-09-19T02:02:17;8.23;;;4.10;;
55989;SDS011;41875;55.806;38.082;2022-09-19T02:04:57;7.30;;;3.88;;
55989;SDS011;41875;55.806;38.082;2022-09-19T02:07:34;7.30;;;4.15;;
55989;SDS011;41875;55.806;38.082;2022-09-19T02:10:09;8.32;;;4.43;;
55989;SDS011;41875;55.806;38.082;2022-09-19T02:12:46;8.57;;;4.40;;
55989;SDS011;41875;55.806;38.082;2022-09-19T02:15:37;6.65;;;3.97;;
55989;SDS011;41875;55.806;38.082;2022-09-19T02:18:17;7.40;;;4.10;;
55989;SDS011;41875;55.806;38.082;2022-09-19T02:20:51;8.63;;;4.78;;
55989;SDS011;41875;55.806;38.082;2022-09-19T02:23:28;8.10;;;4.78;;
55989;SDS011;41875;55.806;38.082;2022-09-19T02:26:01;7.70;;;4.70;;
55989;SDS011;41875;55.806;38.082;2022-09-19T02:28:40;8.02;;;4.75;;
55989;SDS011;41875;55.806;38.082;2022-09-19T02:31:15;9.15;;;4.85;;
55989;SDS011;41875;55.806;38.082;2022-09-19T02:33:50;9.93;;;5.32;;
55989;SDS011;41875;55.806;38.082;2022-09-19T02:36:20;7.82;;;4.85;;
55989;SDS011;41875;55.806;38.082;2022-09-19T02:38:56;9.60;;;4.75;;
55989;SDS011;41875;55.806;38.082;2022-09-19T02:41:53;10.02;;;6.15;;
55989;SDS011;41875;55.806;38.082;2022-09-19T02:44:28;10.32;;;5.93;;
55989;SDS011;41875;55.806;38.082;2022-09-19T02:47:09;10.75;;;6.78;;
55989;SDS011;41875;55.806;38.082;2022-09-19T02:49:46;11.00;;;6.57;;
55989;SDS011;41875;55.806;38.082;2022-09-19T02:52:20;13.23;;;7.38;;
55989;SDS011;41875;55.806;38.082;2022-09-19T02:54:54;15.57;;;7.88;;
55989;SDS011;41875;55.806;38.082;2022-09-19T02:57:29;14.77;;;9.30;;
55989;SDS011;41875;55.806;38.082;2022-09-19T03:00:00;13.75;;;9.18;;
55989;SDS011;41875;55.806;38.082;2022-09-19T03:02:37;15.38;;;10.88;;
55989;SDS011;41875;55.806;38.082;2022-09-19T03:05:11;16.02;;;11.25;;
55989;SDS011;41875;55.806;38.082;2022-09-19T03:07:44;16.30;;;11.27;;
55989;SDS011;41875;55.806;38.082;2022-09-19T03:10:18;18.05;;;12.05;;
55989;SDS011;41875;55.806;38.082;2022-09-19T03:13:10;19.98;;;14.05;;
55989;SDS011;41875;55.806;38.082;2022-09-19T03:15:42;22.60;;;15.50;;
55989;SDS011;41875;55.806;38.082;2022-09-19T03:18:27;23.00;;;14.75;;
55989;SDS011;41875;55.806;38.082;2022-09-19T03:21:01;24.15;;;17.05;;
55989;SDS011;41875;55.806;38.082;2022-09-19T03:23:34;22.42;;;15.52;;
55989;SDS011;41875;55.806;38.082;2022-09-19T03:26:33;26.05;;;16.92;;
55989;SDS011;41875;55.806;38.082;2022-09-19T03:29:07;25.30;;;17.85;;
55989;SDS011;41875;55.806;38.082;2022-09-19T03:31:44;24.13;;;17.35;;
55989;SDS011;41875;55.806;38.082;2022-09-19T03:34:17;26.83;;;18.70;;
55989;SDS011;41875;55.806;38.082;2022-09-19T03:36:51;25.00;;;17.33;;
55989;SDS011;41875;55.806;38.082;2022-09-19T03:39:26;22.75;;;15.68;;
55989;SDS011;41875;55.806;38.082;2022-09-19T03:42:01;19.90;;;14.45;;
55989;SDS011;41875;55.806;38.082;2022-09-19T03:44:31;19.88;;;14.43;;
55989;SDS011;41875;55.806;38.082;2022-09-19T03:47:08;16.95;;;11.18;;
55989;SDS011;41875;55.806;38.082;2022-09-19T03:49:41;18.52;;;13.00;;
55989;SDS011;41875;55.806;38.082;2022-09-19T03:52:13;18.40;;;11.15;;
55989;SDS011;41875;55.806;38.082;2022-09-19T03:54:42;18.27;;;10.25;;
55989;SDS011;41875;55.806;38.082;2022-09-19T03:57:11;15.32;;;10.75;;
55989;SDS011;41875;55.806;38.082;2022-09-19T03:59:41;16.63;;;11.20;;
55989;SDS011;41875;55.806;38.082;2022-09-19T04:02:10;13.63;;;8.73;;
55989;SDS011;41875;55.806;38.082;2022-09-19T04:04:39;14.65;;;8.98;;
55989;SDS011;41875;55.806;38.082;2022-09-19T04:07:08;11.65;;;7.35;;
55989;SDS011;41875;55.806;38.082;2022-09-19T04:09:40;11.45;;;7.22;;
55989;SDS011;41875;55.806;38.082;2022-09-19T04:12:09;11.73;;;7.30;;
55989;SDS011;41875;55.806;38.082;2022-09-19T04:14:40;11.73;;;6.90;;
55989;SDS011;41875;55.806;38.082;2022-09-19T04:17:18;11.57;;;6.47;;
55989;SDS011;41875;55.806;38.082;2022-09-19T04:19:53;9.48;;;5.60;;
55989;SDS011;41875;55.806;38.082;2022-09-19T04:22:29;10.32;;;5.60;;
55989;SDS011;41875;55.806;38.082;2022-09-19T04:25:25;9.02;;;5.07;;
55989;SDS011;41875;55.806;38.082;2022-09-19T04:28:11;8.80;;;4.53;;
55989;SDS011;41875;55.806;38.082;2022-09-19T04:30:40;9.70;;;4.20;;
55989;SDS011;41875;55.806;38.082;2022-09-19T04:33:09;7.80;;;2.78;;
55989;SDS011;41875;55.806;38.082;2022-09-19T04:35:40;6.30;;;3.20;;
55989;SDS011;41875;55.806;38.082;2022-09-19T04:38:11;5.32;;;2.40;;
55989;SDS011;41875;55.806;38.082;2022-09-19T04:40:47;10.68;;;4.85;;
55989;SDS011;41875;55.806;38.082;2022-09-19T04:43:25;6.47;;;3.05;;
55989;SDS011;41875;55.806;38.082;2022-09-19T04:46:15;5.32;;;2.70;;
55989;SDS011;41875;55.806;38.082;2022-09-19T04:48:50;5.07;;;2.22;;
55989;SDS011;41875;55.806;38.082;2022-09-19T04:51:30;3.33;;;1.90;;
55989;SDS011;41875;55.806;38.082;2022-09-19T04:53:59;6.03;;;1.95;;
55989;SDS011;41875;55.806;38.082;2022-09-19T04:56:30;5.35;;;1.77;;
55989;SDS011;41875;55.806;38.082;2022-09-19T04:58:58;6.40;;;1.58;;
55989;SDS011;41875;55.806;38.082;2022-09-19T05:01:27;3.50;;;1.40;;
55989;SDS011;41875;55.806;38.082;2022-09-19T05:03:57;5.90;;;1.60;;
55989;SDS011;41875;55.806;38.082;2022-09-19T05:06:26;6.95;;;2.00;;
55989;SDS011;41875;55.806;38.082;2022-09-19T05:08:56;2.03;;;1.40;;
55989;SDS011;41875;55.806;38.082;2022-09-19T05:11:36;4.97;;;1.58;;
55989;SDS011;41875;55.806;38.082;2022-09-19T05:14:17;2.35;;;1.40;;
55989;SDS011;41875;55.806;38.082;2022-09-19T05:16:55;2.38;;;1.25;;
55989;SDS011;41875;55.806;38.082;2022-09-19T05:19:23;3.50;;;1.17;;
55989;SDS011;41875;55.806;38.082;2022-09-19T05:21:54;3.38;;;1.33;;
55989;SDS011;41875;55.806;38.082;2022-09-19T05:24:23;2.97;;;1.10;;
55989;SDS011;41875;55.806;38.082;2022-09-19T05:26:54;2.67;;;1.20;;
55989;SDS011;41875;55.806;38.082;2022-09-19T05:29:26;3.85;;;1.02;;
55989;SDS011;41875;55.806;38.082;2022-09-19T05:31:59;4.50;;;1.30;;
55989;SDS011;41875;55.806;38.082;2022-09-19T05:34:56;1.63;;;1.00;;
55989;SDS011;41875;55.806;38.082;2022-09-19T05:37:51;1.73;;;1.10;;
55989;SDS011;41875;55.806;38.082;2022-09-19T05:40:39;5.50;;;1.10;;
55989;SDS011;41875;55.806;38.082;2022-09-19T05:43:12;2.85;;;1.10;;
55989;SDS011;41875;55.806;38.082;2022-09-19T05:45:42;6.60;;;1.42;;
55989;SDS011;41875;55.806;38.082;2022-09-19T05:48:10;3.22;;;1.10;;
55989;SDS011;41875;55.806;38.082;2022-09-19T05:53:13;4.25;;;1.40;;
55989;SDS011;41875;55.806;38.082;2022-09-19T05:56:12;6.68;;;1.40;;
55989;SDS011;41875;55.806;38.082;2022-09-19T05:58:47;2.13;;;1.23;;
55989;SDS011;41875;55.806;38.082;2022-09-19T06:01:16;5.22;;;1.35;;
55989;SDS011;41875;55.806;38.082;2022-09-19T06:03:46;1.80;;;1.20;;
55989;SDS011;41875;55.806;38.082;2022-09-19T06:06:17;1.98;;;1.30;;
55989;SDS011;41875;55.806;38.082;2022-09-19T06:08:53;3.85;;;1.27;;
55989;SDS011;41875;55.806;38.082;2022-09-19T06:11:27;2.50;;;1.30;;
55989;SDS011;41875;55.806;38.082;2022-09-19T06:13:57;3.30;;;1.20;;
55989;SDS011;41875;55.806;38.082;2022-09-19T06:16:49;1.77;;;0.93;;
55989;SDS011;41875;55.806;38.082;2022-09-19T06:19:30;4.18;;;1.10;;
55989;SDS011;41875;55.806;38.082;2022-09-19T06:22:19;6.70;;;1.00;;
55989;SDS011;41875;55.806;38.082;2022-09-19T06:24:51;4.00;;;0.85;;
55989;SDS011;41875;55.806;38.082;2022-09-19T06:27:20;2.78;;;1.65;;
55989;SDS011;41875;55.806;38.082;2022-09-19T06:29:50;4.72;;;1.13;;
55989;SDS011;41875;55.806;38.082;2022-09-19T06:32:22;4.78;;;1.20;;
55989;SDS011;41875;55.806;38.082;2022-09-19T06:35:11;1.95;;;0.80;;
55989;SDS011;41875;55.806;38.082;2022-09-19T06:40:10;1.33;;;0.80;;
55989;SDS011;41875;55.806;38.082;2022-09-19T06:42:45;1.25;;;1.08;;
55989;SDS011;41875;55.806;38.082;2022-09-19T06:45:34;3.85;;;1.00;;
55989;SDS011;41875;55.806;38.082;2022-09-19T06:48:13;2.15;;;1.17;;
55989;SDS011;41875;55.806;38.082;2022-09-19T06:51:01;3.10;;;0.88;;
55989;SDS011;41875;55.806;38.082;2022-09-19T06:53:30;1.23;;;0.70;;
55989;SDS011;41875;55.806;38.082;2022-09-19T06:56:02;4.15;;;0.80;;
55989;SDS011;41875;55.806;38.082;2022-09-19T06:58:31;3.05;;;0.95;;
55989;SDS011;41875;55.806;38.082;2022-09-19T07:01:02;4.22;;;0.90;;
55989;SDS011;41875;55.806;38.082;2022-09-19T07:03:33;1.58;;;0.82;;
55989;SDS011;41875;55.806;38.082;2022-09-19T07:06:04;2.30;;;0.75;;
55989;SDS011;41875;55.806;38.082;2022-09-19T07:08:36;1.02;;;0.68;;
55989;SDS011;41875;55.806;38.082;2022-09-19T07:11:08;0.95;;;0.52;;
55989;SDS011;41875;55.806;38.082;2022-09-19T07:13:40;0.85;;;0.57;;
55989;SDS011;41875;55.806;38.082;2022-09-19T07:16:12;2.72;;;0.65;;
55989;SDS011;41875;55.806;38.082;2022-09-19T07:18:40;1.40;;;0.60;;
55989;SDS011;41875;55.806;38.082;2022-09-19T07:21:34;1.20;;;0.60;;
55989;SDS011;41875;55.806;38.082;2022-09-19T07:24:08;4.78;;;0.80;;
55989;SDS011;41875;55.806;38.082;2022-09-19T07:26:55;1.13;;;0.60;;
55989;SDS011;41875;55.806;38.082;2022-09-19T07:29:25;0.50;;;0.47;;
55989;SDS011;41875;55.806;38.082;2022-09-19T07:31:55;6.10;;;0.80;;
55989;SDS011;41875;55.806;38.082;2022-09-19T07:34:24;3.22;;;0.88;;
55989;SDS011;41875;55.806;38.082;2022-09-19T07:36:53;1.40;;;0.82;;
55989;SDS011;41875;55.806;38.082;2022-09-19T07:42:06;1.45;;;0.32;;
55989;SDS011;41875;55.806;38.082;2022-09-19T07:47:55;1.27;;;0.30;;
55989;SDS011;41875;55.806;38.082;2022-09-19T07:50:47;4.53;;;0.50;;
55989;SDS011;41875;55.806;38.082;2022-09-19T07:53:27;2.60;;;0.35;;
55989;SDS011;41875;55.806;38.082;2022-09-19T07:58:25;2.90;;;0.40;;
55989;SDS011;41875;55.806;38.082;2022-09-19T08:00:57;0.77;;;0.40;;
55989;SDS011;41875;55.806;38.082;2022-09-19T08:03:49;2.70;;;0.50;;
55989;SDS011;41875;55.806;38.082;2022-09-19T08:06:26;0.75;;;0.28;;
55989;SDS011;41875;55.806;38.082;2022-09-19T08:08:57;2.13;;;0.43;;
55989;SDS011;41875;55.806;38.082;2022-09-19T08:11:55;2.55;;;0.40;;
55989;SDS011;41875;55.806;38.082;2022-09-19T08:14:27;0.90;;;0.30;;
55989;SDS011;41875;55.806;38.082;2022-09-19T08:16:57;0.70;;;0.40;;
55989;SDS011;41875;55.806;38.082;2022-09-19T08:19:29;2.70;;;0.30;;
55989;SDS011;41875;55.806;38.082;2022-09-19T08:21:59;0.57;;;0.30;;
55989;SDS011;41875;55.806;38.082;2022-09-19T08:24:36;1.27;;;0.30;;
55989;SDS011;41875;55.806;38.082;2022-09-19T08:27:10;0.98;;;0.32;;
55989;SDS011;41875;55.806;38.082;2022-09-19T08:29:41;11.50;;;4.80;;
55989;SDS011;41875;55.806;38.082;2022-09-19T08:32:13;0.65;;;0.50;;
55989;SDS011;41875;55.806;38.082;2022-09-19T08:34:43;4.80;;;0.50;;
55989;SDS011;41875;55.806;38.082;2022-09-19T08:37:14;2.00;;;0.43;;
55989;SDS011;41875;55.806;38.082;2022-09-19T08:39:44;1.13;;;0.52;;
55989;SDS011;41875;55.806;38.082;2022-09-19T08:42:38;2.65;;;0.70;;
55989;SDS011;41875;55.806;38.082;2022-09-19T08:45:16;4.18;;;0.38;;
55989;SDS011;41875;55.806;38.082;2022-09-19T08:47:53;1.67;;;0.35;;
55989;SDS011;41875;55.806;38.082;2022-09-19T08:50:25;0.40;;;0.30;;
55989;SDS011;41875;55.806;38.082;2022-09-19T08:53:03;1.17;;;0.38;;
55989;SDS011;41875;55.806;38.082;2022-09-19T08:55:38;7.93;;;3.47;;
55989;SDS011;41875;55.806;38.082;2022-09-19T08:58:17;3.10;;;0.43;;
55989;SDS011;41875;55.806;38.082;2022-09-19T09:01:07;3.33;;;0.50;;
55989;SDS011;41875;55.806;38.082;2022-09-19T09:04:17;1.27;;;0.40;;
55989;SDS011;41875;55.806;38.082;2022-09-19T09:07:04;1.35;;;0.50;;
55989;SDS011;41875;55.806;38.082;2022-09-19T09:10:02;1.95;;;0.30;;
55989;SDS011;41875;55.806;38.082;2022-09-19T09:12:43;1.70;;;0.60;;
55989;SDS011;41875;55.806;38.082;2022-09-19T09:15:23;3.90;;;0.50;;
55989;SDS011;41875;55.806;38.082;2022-09-19T09:18:23;2.63;;;0.40;;
55989;SDS011;41875;55.806;38.082;2022-09-19T09:21:06;2.55;;;0.45;;
55989;SDS011;41875;55.806;38.082;2022-09-19T09:23:54;4.45;;;0.63;;
55989;SDS011;41875;55.806;38.082;2022-09-19T09:26:57;2.83;;;0.80;;
55989;SDS011;41875;55.806;38.082;2022-09-19T09:29:29;3.17;;;0.40;;
55989;SDS011;41875;55.806;38.082;2022-09-19T09:32:12;1.05;;;0.60;;
55989;SDS011;41875;55.806;38.082;2022-09-19T09:34:57;1.17;;;0.45;;
55989;SDS011;41875;55.806;38.082;2022-09-19T09:37:31;5.45;;;0.57;;
55989;SDS011;41875;55.806;38.082;2022-09-19T09:40:14;0.70;;;0.40;;
55989;SDS011;41875;55.806;38.082;2022-09-19T09:43:13;0.50;;;0.30;;
55989;SDS011;41875;55.806;38.082;2022-09-19T09:45:51;2.00;;;0.30;;
55989;SDS011;41875;55.806;38.082;2022-09-19T09:48:29;3.25;;;0.52;;
55989;SDS011;41875;55.806;38.082;2022-09-19T09:51:08;2.28;;;0.50;;
55989;SDS011;41875;55.806;38.082;2022-09-19T09:53:50;1.88;;;0.40;;
55989;SDS011;41875;55.806;38.082;2022-09-19T09:56:37;0.60;;;0.60;;
55989;SDS011;41875;55.806;38.082;2022-09-19T09:59:15;1.85;;;0.50;;
55989;SDS011;41875;55.806;38.082;2022-09-19T10:02:19;0.93;;;0.50;;
55989;SDS011;41875;55.806;38.082;2022-09-19T10:05:14;2.58;;;0.60;;
55989;SDS011;41875;55.806;38.082;2022-09-19T10:07:53;2.03;;;0.57;;
55989;SDS011;41875;55.806;38.082;2022-09-19T10:10:32;1.77;;;0.70;;
55989;SDS011;41875;55.806;38.082;2022-09-19T10:13:04;2.40;;;0.60;;
55989;SDS011;41875;55.806;38.082;2022-09-19T10:15:43;2.38;;;0.90;;
55989;SDS011;41875;55.806;38.082;2022-09-19T10:18:27;1.92;;;0.90;;
55989;SDS011;41875;55.806;38.082;2022-09-19T10:21:13;5.68;;;0.50;;
55989;SDS011;41875;55.806;38.082;2022-09-19T10:23:48;3.22;;;0.60;;
55989;SDS011;41875;55.806;38.082;2022-09-19T10:26:25;4.60;;;0.43;;
55989;SDS011;41875;55.806;38.082;2022-09-19T10:29:03;3.03;;;0.50;;
55989;SDS011;41875;55.806;38.082;2022-09-19T10:32:00;2.20;;;0.60;;
55989;SDS011;41875;55.806;38.082;2022-09-19T10:34:53;1.40;;;0.50;;
55989;SDS011;41875;55.806;38.082;2022-09-19T10:37:26;2.15;;;0.70;;
55989;SDS011;41875;55.806;38.082;2022-09-19T10:39:59;2.28;;;0.40;;
55989;SDS011;41875;55.806;38.082;2022-09-19T10:42:36;2.92;;;0.63;;
55989;SDS011;41875;55.806;38.082;2022-09-19T10:45:31;2.33;;;0.50;;
55989;SDS011;41875;55.806;38.082;2022-09-19T10:48:09;3.10;;;0.52;;
55989;SDS011;41875;55.806;38.082;2022-09-19T10:50:42;1.95;;;0.50;;
55989;SDS011;41875;55.806;38.082;2022-09-19T10:53:16;1.17;;;0.30;;
55989;SDS011;41875;55.806;38.082;2022-09-19T10:55:50;1.77;;;0.50;;
55989;SDS011;41875;55.806;38.082;2022-09-19T10:58:21;4.38;;;1.42;;
55989;SDS011;41875;55.806;38.082;2022-09-19T11:01:18;1.38;;;0.40;;
55989;SDS011;41875;55.806;38.082;2022-09-19T11:04:03;0.70;;;0.50;;
55989;SDS011;41875;55.806;38.082;2022-09-19T11:06:33;2.58;;;0.60;;
55989;SDS011;41875;55.806;38.082;2022-09-19T11:09:06;1.02;;;0.40;;
55989;SDS011;41875;55.806;38.082;2022-09-19T11:12:02;0.55;;;0.40;;
55989;SDS011;41875;55.806;38.082;2022-09-19T11:14:36;1.67;;;0.40;;
55989;SDS011;41875;55.806;38.082;2022-09-19T11:17:19;2.13;;;0.30;;
55989;SDS011;41875;55.806;38.082;2022-09-19T11:20:22;4.80;;;0.50;;
55989;SDS011;41875;55.806;38.082;2022-09-19T11:23:15;3.40;;;0.60;;
55989;SDS011;41875;55.806;38.082;2022-09-19T11:26:00;0.88;;;0.43;;
55989;SDS011;41875;55.806;38.082;2022-09-19T11:28:45;2.97;;;0.60;;
55989;SDS011;41875;55.806;38.082;2022-09-19T11:31:29;3.10;;;0.50;;
55989;SDS011;41875;55.806;38.082;2022-09-19T11:34:36;4.15;;;0.70;;
55989;SDS011;41875;55.806;38.082;2022-09-19T11:37:27;2.25;;;0.80;;
55989;SDS011;41875;55.806;38.082;2022-09-19T11:40:17;1.83;;;0.82;;
55989;SDS011;41875;55.806;38.082;2022-09-19T11:42:55;5.47;;;1.65;;
55989;SDS011;41875;55.806;38.082;2022-09-19T11:45:47;2.05;;;0.80;;
55989;SDS011;41875;55.806;38.082;2022-09-19T11:51:29;2.40;;;0.80;;
55989;SDS011;41875;55.806;38.082;2022-09-19T11:54:11;1.13;;;0.70;;
55989;SDS011;41875;55.806;38.082;2022-09-19T11:56:59;4.47;;;0.88;;
55989;SDS011;41875;55.806;38.082;2022-09-19T11:59:43;3.63;;;0.90;;
55989;SDS011;41875;55.806;38.082;2022-09-19T12:02:28;6.18;;;1.92;;
55989;SDS011;41875;55.806;38.082;2022-09-19T12:05:10;1.63;;;0.63;;
55989;SDS011;41875;55.806;38.082;2022-09-19T12:07:50;5.22;;;0.90;;
55989;SDS011;41875;55.806;38.082;2022-09-19T12:10:32;1.58;;;0.60;;
55989;SDS011;41875;55.806;38.082;2022-09-19T12:13:05;2.05;;;0.80;;
55989;SDS011;41875;55.806;38.082;2022-09-19T12:15:51;4.28;;;1.02;;
55989;SDS011;41875;55.806;38.082;2022-09-19T12:18:24;3.55;;;1.00;;
55989;SDS011;41875;55.806;38.082;2022-09-19T12:20:57;1.88;;;0.90;;
55989;SDS011;41875;55.806;38.082;2022-09-19T12:23:32;4.78;;;0.85;;
55989;SDS011;41875;55.806;38.082;2022-09-19T12:26:35;2.30;;;0.93;;
55989;SDS011;41875;55.806;38.082;2022-09-19T12:29:16;1.38;;;0.85;;
55989;SDS011;41875;55.806;38.082;2022-09-19T12:31:54;3.65;;;0.70;;
55989;SDS011;41875;55.806;38.082;2022-09-19T12:34:31;2.78;;;0.73;;
55989;SDS011;41875;55.806;38.082;2022-09-19T12:37:10;0.97;;;0.67;;
55989;SDS011;41875;55.806;38.082;2022-09-19T12:39:54;2.30;;;0.65;;
55989;SDS011;41875;55.806;38.082;2022-09-19T12:42:32;1.48;;;0.85;;
55989;SDS011;41875;55.806;38.082;2022-09-19T12:45:12;3.17;;;0.75;;
55989;SDS011;41875;55.806;38.082;2022-09-19T12:47:48;2.10;;;0.90;;
55989;SDS011;41875;55.806;38.082;2022-09-19T12:50:51;1.40;;;0.70;;
55989;SDS011;41875;55.806;38.082;2022-09-19T12:53:28;5.28;;;0.95;;
55989;SDS011;41875;55.806;38.082;2022-09-19T12:56:06;2.55;;;0.70;;
55989;SDS011;41875;55.806;38.082;2022-09-19T12:58:42;2.33;;;0.60;;
55989;SDS011;41875;55.806;38.082;2022-09-19T13:01:25;1.85;;;0.70;;
55989;SDS011;41875;55.806;38.082;2022-09-19T13:04:04;3.63;;;0.50;;
55989;SDS011;41875;55.806;38.082;2022-09-19T13:06:52;3.58;;;0.55;;
55989;SDS011;41875;55.806;38.082;2022-09-19T13:09:33;1.40;;;0.90;;
55989;SDS011;41875;55.806;38.082;2022-09-19T13:12:12;1.63;;;0.80;;
55989;SDS011;41875;55.806;38.082;2022-09-19T13:14:48;1.25;;;0.88;;
55989;SDS011;41875;55.806;38.082;2022-09-19T13:17:21;1.55;;;0.60;;
55989;SDS011;41875;55.806;38.082;2022-09-19T13:20:14;0.93;;;0.60;;
55989;SDS011;41875;55.806;38.082;2022-09-19T13:23:03;0.80;;;0.60;;
55989;SDS011;41875;55.806;38.082;2022-09-19T13:25:49;2.72;;;0.95;;
55989;SDS011;41875;55.806;38.082;2022-09-19T13:28:24;0.88;;;0.50;;
55989;SDS011;41875;55.806;38.082;2022-09-19T13:33:48;3.13;;;0.50;;
55989;SDS011;41875;55.806;38.082;2022-09-19T13:42:18;2.67;;;0.60;;
55989;SDS011;41875;55.806;38.082;2022-09-19T13:44:56;2.58;;;0.38;;
55989;SDS011;41875;55.806;38.082;2022-09-19T13:47:32;0.68;;;0.30;;
55989;SDS011;41875;55.806;38.082;2022-09-19T13:50:15;1.42;;;0.28;;
55989;SDS011;41875;55.806;38.082;2022-09-19T13:52:50;3.80;;;0.50;;
55989;SDS011;41875;55.806;38.082;2022-09-19T13:55:29;5.75;;;0.50;;
55989;SDS011;41875;55.806;38.082;2022-09-19T13:58:14;3.40;;;0.70;;
55989;SDS011;41875;55.806;38.082;2022-09-19T14:00:55;2.45;;;0.50;;
55989;SDS011;41875;55.806;38.082;2022-09-19T14:03:35;3.20;;;0.40;;
55989;SDS011;41875;55.806;38.082;2022-09-19T14:06:14;2.13;;;0.43;;
55989;SDS011;41875;55.806;38.082;2022-09-19T14:08:48;3.75;;;0.68;;
55989;SDS011;41875;55.806;38.082;2022-09-19T14:15:28;2.80;;;0.57;;
55989;SDS011;41875;55.806;38.082;2022-09-19T14:27:18;0.50;;;0.50;;
55989;SDS011;41875;55.806;38.082;2022-09-19T14:30:15;0.70;;;0.40;;
55989;SDS011;41875;55.806;38.082;2022-09-19T14:32:54;1.02;;;0.40;;
55989;SDS011;41875;55.806;38.082;2022-09-19T14:35:43;0.75;;;0.30;;
55989;SDS011;41875;55.806;38.082;2022-09-19T14:38:22;3.40;;;0.60;;
55989;SDS011;41875;55.806;38.082;2022-09-19T14:41:02;3.42;;;0.80;;
55989;SDS011;41875;55.806;38.082;2022-09-19T14:46:45;1.58;;;0.40;;
55989;SDS011;41875;55.806;38.082;2022-09-19T14:49:23;0.95;;;0.40;;
55989;SDS011;41875;55.806;38.082;2022-09-19T14:51:58;2.63;;;2.40;;
55989;SDS011;41875;55.806;38.082;2022-09-19T14:54:31;3.42;;;0.47;;
55989;SDS011;41875;55.806;38.082;2022-09-19T14:57:13;0.88;;;0.43;;
55989;SDS011;41875;55.806;38.082;2022-09-19T14:59:43;3.05;;;0.60;;
55989;SDS011;41875;55.806;38.082;2022-09-19T15:02:15;2.00;;;0.50;;
55989;SDS011;41875;55.806;38.082;2022-09-19T15:04:50;1.05;;;0.35;;
55989;SDS011;41875;55.806;38.082;2022-09-19T15:07:26;2.50;;;0.45;;
55989;SDS011;41875;55.806;38.082;2022-09-19T15:09:56;3.30;;;0.77;;
55989;SDS011;41875;55.806;38.082;2022-09-19T15:12:28;0.47;;;0.30;;
55989;SDS011;41875;55.806;38.082;2022-09-19T15:15:00;5.30;;;0.80;;
55989;SDS011;41875;55.806;38.082;2022-09-19T15:17:30;10.20;;;0.50;;
55989;SDS011;41875;55.806;38.082;2022-09-19T15:20:08;2.53;;;0.50;;
55989;SDS011;41875;55.806;38.082;2022-09-19T15:22:41;2.03;;;0.68;;
55989;SDS011;41875;55.806;38.082;2022-09-19T15:25:20;2.72;;;0.80;;
55989;SDS011;41875;55.806;38.082;2022-09-19T15:27:51;4.22;;;0.82;;
55989;SDS011;41875;55.806;38.082;2022-09-19T15:30:23;1.23;;;0.55;;
55989;SDS011;41875;55.806;38.082;2022-09-19T15:32:55;1.60;;;0.60;;
55989;SDS011;41875;55.806;38.082;2022-09-19T15:35:26;2.25;;;0.65;;
55989;SDS011;41875;55.806;38.082;2022-09-19T15:37:59;5.13;;;0.70;;
55989;SDS011;41875;55.806;38.082;2022-09-19T15:40:33;3.65;;;0.73;;
55989;SDS011;41875;55.806;38.082;2022-09-19T15:43:04;2.53;;;0.60;;
55989;SDS011;41875;55.806;38.082;2022-09-19T15:45:38;1.70;;;0.60;;
55989;SDS011;41875;55.806;38.082;2022-09-19T15:48:12;2.60;;;0.98;;
55989;SDS011;41875;55.806;38.082;2022-09-19T15:50:45;5.57;;;0.68;;
55989;SDS011;41875;55.806;38.082;2022-09-19T15:53:20;1.70;;;0.60;;
55989;SDS011;41875;55.806;38.082;2022-09-19T15:55:55;2.05;;;0.70;;
55989;SDS011;41875;55.806;38.082;2022-09-19T15:58:27;1.67;;;0.60;;
55989;SDS011;41875;55.806;38.082;2022-09-19T16:01:17;6.47;;;0.95;;
55989;SDS011;41875;55.806;38.082;2022-09-19T16:06:24;3.70;;;1.20;;
55989;SDS011;41875;55.806;38.082;2022-09-19T16:09:19;3.15;;;0.90;;
55989;SDS011;41875;55.806;38.082;2022-09-19T16:11:58;2.88;;;0.95;;
55989;SDS011;41875;55.806;38.082;2022-09-19T16:14:27;3.08;;;1.00;;
55989;SDS011;41875;55.806;38.082;2022-09-19T16:17:10;1.65;;;0.93;;